createdAt,value
2022-08-21T00:00:59.793Z,60175.97
2022-08-21T00:03:27.560Z,60175.97
2022-08-21T00:05:55.288Z,60175.97
2022-08-21T00:10:50.714Z,96637.72
2022-08-21T00:13:20.630Z,96630.97
2022-08-21T00:15:49.334Z,96638.78
2022-08-21T00:18:17.769Z,96638.50
2022-08-21T00:20:47.124Z,96634.72
2022-08-21T00:23:15.686Z,96637.97
2022-08-21T00:25:45.097Z,96636.63
2022-08-21T00:28:14.952Z,96638.28
2022-08-21T00:30:43.739Z,96634.22
2022-08-21T00:33:12.077Z,96633.66
2022-08-21T00:35:42.625Z,96636.91
2022-08-21T00:38:11.833Z,96639.31
2022-08-21T00:40:44.653Z,96644.16
2022-08-21T00:43:15.614Z,96636.06
2022-08-21T00:45:43.380Z,96639.03
2022-08-21T00:48:11.255Z,96638.50
2022-08-21T00:50:44.070Z,96616.88
2022-08-21T00:53:13.436Z,96640.16
2022-08-21T00:55:42.256Z,96636.09
2022-08-21T00:58:13.055Z,96625.53
2022-08-21T01:00:45.295Z,96645.81
2022-08-21T01:03:16.327Z,96643.66
2022-08-21T01:05:45.469Z,96635.78
2022-08-21T01:08:15.445Z,96635.78
2022-08-21T01:10:43.871Z,96629.31
2022-08-21T01:13:15.937Z,96613.34
2022-08-21T01:15:50.182Z,96618.19
2022-08-21T01:18:19.341Z,96617.16
2022-08-21T01:20:59.270Z,96621.47
2022-08-21T01:23:27.043Z,96620.66
2022-08-21T01:25:54.808Z,96608.47
2022-08-21T01:28:24.731Z,96599.56
2022-08-21T01:30:54.770Z,96609.28
2022-08-21T01:33:26.101Z,96609.81
2022-08-21T01:35:54.048Z,96604.69
2022-08-21T01:38:23.153Z,96606.50
2022-08-21T01:40:50.875Z,96587.34
2022-08-21T01:43:18.631Z,96601.44
2022-08-21T01:45:53.391Z,96594.94
2022-08-21T01:48:21.179Z,96592.75
2022-08-21T01:50:49.169Z,96593.84
2022-08-21T01:53:27.834Z,96586.88
2022-08-21T01:56:01.143Z,96588.44
2022-08-21T01:58:28.991Z,96586.84
2022-08-21T02:00:56.885Z,96591.47
2022-08-21T02:03:35.322Z,96584.16
2022-08-21T02:06:05.142Z,96575.25
2022-08-21T02:08:34.959Z,96573.91
2022-08-21T02:11:03.003Z,96579.84
2022-08-21T02:13:30.814Z,96575.25
2022-08-21T02:15:58.533Z,96576.59
2022-08-21T02:18:26.254Z,96571.16
2022-08-21T02:20:56.454Z,96560.13
2022-08-21T02:23:26.534Z,96560.91
2022-08-21T02:25:56.325Z,96571.97
2022-08-21T02:28:24.250Z,96573.91
2022-08-21T02:30:53.371Z,96567.16
2022-08-21T02:33:21.907Z,96570.94
2022-08-21T02:35:50.801Z,96554.47
2022-08-21T02:38:20.875Z,96571.22
2022-08-21T02:40:51.368Z,96569.88
2022-08-21T02:43:22.041Z,96570.13
2022-08-21T02:45:50.338Z,96566.63
2022-08-21T02:48:19.466Z,96572.28
2022-08-21T02:50:49.579Z,96566.06
2022-08-21T02:53:18.127Z,96567.44
2022-08-21T02:55:47.947Z,96561.50
2022-08-21T02:58:17.139Z,96560.97
2022-08-21T03:00:46.631Z,96561.22
2022-08-21T03:03:15.610Z,96566.63
2022-08-21T03:05:45.035Z,96564.19
2022-08-21T03:08:15.368Z,96558.25
2022-08-21T03:10:45.868Z,96559.34
2022-08-21T03:13:13.881Z,96560.41
2022-08-21T03:15:42.402Z,96558.25
2022-08-21T03:18:13.056Z,96561.78
2022-08-21T03:20:43.671Z,96558.25
2022-08-21T03:23:14.317Z,96565.28
2022-08-21T03:25:45.163Z,96566.38
2022-08-21T03:28:15.701Z,96565.81
2022-08-21T03:30:44.578Z,96570.69
2022-08-21T03:33:15.366Z,96552.31
2022-08-21T03:35:44.590Z,96573.38
2022-08-21T03:38:13.604Z,96577.69
2022-08-21T03:40:41.534Z,96572.84
2022-08-21T03:43:10.596Z,96564.19
2022-08-21T03:45:39.283Z,96568.50
2022-08-21T03:48:08.137Z,96565.28
2022-08-21T03:50:41.081Z,96560.41
2022-08-21T03:53:16.747Z,96571.22
2022-08-21T03:55:46.443Z,96562.31
2022-08-21T03:58:16.615Z,96562.56
2022-08-21T04:00:45.346Z,96553.69
2022-08-21T04:03:13.058Z,96561.78
2022-08-21T04:05:42.838Z,96565.28
2022-08-21T04:08:10.908Z,96555.00
2022-08-21T04:10:40.654Z,96554.47
2022-08-21T04:13:09.724Z,96562.56
2022-08-21T04:15:37.727Z,96561.78
2022-08-21T04:18:06.470Z,96566.63
2022-08-21T04:20:34.683Z,96562.03
2022-08-21T04:23:03.876Z,96562.56
2022-08-21T04:25:32.701Z,96559.31
2022-08-21T04:28:00.589Z,96569.59
2022-08-21T04:30:28.977Z,96568.53
2022-08-21T04:32:59.124Z,96572.56
2022-08-21T04:35:28.963Z,96568.53
2022-08-21T04:37:56.977Z,96564.47
2022-08-21T04:40:28.388Z,96570.69
2022-08-21T04:43:00.141Z,96575.00
2022-08-21T04:45:30.222Z,96581.22
2022-08-21T04:48:00.923Z,96584.69
2022-08-21T04:50:32.621Z,96583.03
2022-08-21T04:53:02.655Z,96576.31
2022-08-21T04:55:31.776Z,96585.22
2022-08-21T04:57:59.974Z,96583.81
2022-08-21T05:00:28.060Z,96586.78
2022-08-21T05:03:00.149Z,96591.06
2022-08-21T05:05:30.221Z,96585.59
2022-08-21T05:08:01.157Z,96581.81
2022-08-21T05:10:29.296Z,96599.66
2022-08-21T05:12:58.543Z,96594.28
2022-08-21T05:15:26.469Z,96599.66
2022-08-21T05:18:01.429Z,96581.91
2022-08-21T05:20:29.956Z,96588.41
2022-08-21T05:22:58.527Z,96585.72
2022-08-21T05:25:28.173Z,96598.94
2022-08-21T05:27:58.219Z,96597.63
2022-08-21T05:30:30.131Z,96601.94
2022-08-21T05:32:59.456Z,96605.97
2022-08-21T05:35:28.011Z,96611.66
2022-08-21T05:37:56.662Z,96613.19
2022-08-21T05:40:24.892Z,96609.91
2022-08-21T05:42:55.391Z,96610.84
2022-08-21T05:45:26.370Z,96609.75
2022-08-21T05:48:14.306Z,96595.09
2022-08-21T05:50:42.490Z,96594.41
2022-08-21T05:53:11.436Z,96603.19
2022-08-21T05:55:45.137Z,96602.47
2022-08-21T05:58:18.444Z,96611.63
2022-08-21T06:00:48.545Z,96608.69
2022-08-21T06:03:19.871Z,96611.56
2022-08-21T06:05:47.833Z,96601.41
2022-08-21T06:08:15.766Z,96609.47
2022-08-21T06:10:44.417Z,96613.78
2022-08-21T06:13:12.676Z,96613.41
2022-08-21T06:15:40.436Z,96605.69
2022-08-21T06:18:08.460Z,96603.88
2022-08-21T06:20:37.643Z,96602.00
2022-08-21T06:23:05.597Z,96605.78
2022-08-21T06:25:33.602Z,96599.56
2022-08-21T06:28:06.674Z,96597.13
2022-08-21T06:30:35.233Z,96603.88
2022-08-21T06:33:03.329Z,96603.34
2022-08-21T06:35:31.842Z,96588.50
2022-08-21T06:38:03.867Z,96606.06
2022-08-21T06:40:34.220Z,96607.41
2022-08-21T06:43:09.468Z,96599.06
2022-08-21T06:45:37.719Z,96603.91
2022-08-21T06:48:06.175Z,96598.25
2022-08-21T06:50:34.083Z,96607.94
2022-08-21T06:53:06.177Z,96602.56
2022-08-21T06:55:33.964Z,96608.78
2022-08-21T06:58:02.579Z,96609.59
2022-08-21T07:00:31.420Z,96603.09
2022-08-21T07:02:59.448Z,96597.41
2022-08-21T07:05:28.225Z,96599.25
2022-08-21T07:07:55.982Z,96591.06
2022-08-21T07:10:25.654Z,96600.19
2022-08-21T07:13:00.146Z,96597.53
2022-08-21T07:15:30.401Z,96594.97
2022-08-21T07:17:59.102Z,96600.09
2022-08-21T07:20:27.125Z,96597.88
2022-08-21T07:22:55.156Z,96587.88
2022-08-21T07:25:22.940Z,96595.66
2022-08-21T07:27:52.074Z,96598.81
2022-08-21T07:30:20.532Z,96595.72
2022-08-21T07:32:50.138Z,96596.06
2022-08-21T07:35:17.971Z,96595.56
2022-08-21T07:37:45.749Z,96594.56
2022-08-21T07:40:14.141Z,96593.38
2022-08-21T07:42:43.125Z,96578.44
2022-08-21T07:45:13.244Z,96595.91
2022-08-21T07:47:42.418Z,96591.41
2022-08-21T07:50:10.781Z,96593.63
2022-08-21T07:52:38.580Z,96594.75
2022-08-21T07:55:07.601Z,96587.06
2022-08-21T07:57:35.636Z,96593.69
2022-08-21T08:00:03.885Z,96591.06
2022-08-21T08:02:32.978Z,96590.50
2022-08-21T08:05:01.797Z,96592.97
2022-08-21T08:07:29.722Z,96588.44
2022-08-21T08:09:57.470Z,96592.06
2022-08-21T08:12:30.046Z,96585.94
2022-08-21T08:14:58.344Z,96584.63
2022-08-21T08:17:26.208Z,96589.47
2022-08-21T08:19:55.572Z,96586.50
2022-08-21T08:22:25.501Z,96587.31
2022-08-21T08:24:54.015Z,96565.56
2022-08-21T08:27:21.925Z,96587.69
2022-08-21T08:29:50.045Z,96565.47
2022-08-21T08:32:17.793Z,96568.00
2022-08-21T08:34:45.514Z,96577.81
2022-08-21T08:37:15.240Z,96561.84
2022-08-21T08:39:43.098Z,96570.09
2022-08-21T08:42:33.365Z,96576.50
2022-08-21T08:45:04.920Z,96566.16
2022-08-21T08:47:34.753Z,96571.25
2022-08-21T08:50:07.969Z,96566.53
2022-08-21T08:52:43.597Z,96573.78
2022-08-21T08:55:15.821Z,96571.84
2022-08-21T08:57:48.663Z,96565.72
2022-08-21T09:00:22.634Z,96561.91
2022-08-21T09:02:55.537Z,96565.47
2022-08-21T09:05:27.869Z,96557.28
2022-08-21T09:08:19.033Z,96550.16
2022-08-21T09:10:58.435Z,96564.84
2022-08-21T09:13:40.155Z,96555.97
2022-08-21T09:16:16.437Z,96555.25
2022-08-21T09:18:54.671Z,96542.31
2022-08-21T09:21:30.092Z,96551.00
2022-08-21T09:24:03.363Z,96550.88
2022-08-21T09:26:38.230Z,96544.50
2022-08-21T09:29:08.634Z,96549.22
2022-08-21T09:31:39.208Z,96540.22
2022-08-21T09:34:09.150Z,96535.94
2022-08-21T09:36:40.950Z,96539.94
2022-08-21T09:39:11.072Z,96530.78
2022-08-21T09:41:40.279Z,96529.84
2022-08-21T09:44:10.358Z,96527.88
2022-08-21T09:46:38.295Z,96528.34
2022-08-21T09:49:13.425Z,96526.97
2022-08-21T09:51:55.170Z,96526.75
2022-08-21T09:54:30.867Z,96514.88
2022-08-21T09:57:19.367Z,96515.38
2022-08-21T09:59:48.769Z,96507.91
2022-08-21T10:02:27.172Z,96514.59
2022-08-21T10:04:57.148Z,96510.84
2022-08-21T10:07:27.775Z,96506.72
2022-08-21T10:10:08.162Z,96505.81
2022-08-21T10:12:47.033Z,96487.16
2022-08-21T10:15:22.005Z,96496.75
2022-08-21T10:18:01.079Z,96493.22
2022-08-21T10:20:37.629Z,96501.28
2022-08-21T10:23:18.158Z,96494.06
2022-08-21T10:26:06.327Z,96492.63
2022-08-21T10:28:49.488Z,96492.59
2022-08-21T10:31:29.368Z,96491.25
2022-08-21T10:34:13.032Z,96471.03
2022-08-21T10:36:48.854Z,96484.81
2022-08-21T10:39:34.896Z,96491.66
2022-08-21T10:42:27.927Z,96498.50
2022-08-21T10:45:19.114Z,96487.34
2022-08-21T10:47:51.524Z,96487.41
2022-08-21T10:50:31.948Z,96483.34
2022-08-21T10:53:14.271Z,96477.25
2022-08-21T10:55:46.170Z,96471.06
2022-08-21T10:58:25.377Z,96468.75
2022-08-21T11:00:58.732Z,96457.63
2022-08-21T11:03:33.894Z,96456.78
2022-08-21T11:06:08.718Z,96455.38
2022-08-21T11:08:43.212Z,96461.25
2022-08-21T11:11:21.660Z,96424.28
2022-08-21T11:13:55.936Z,96435.03
2022-08-21T11:16:28.519Z,96436.56
2022-08-21T11:19:04.035Z,96436.22
2022-08-21T11:21:39.783Z,96438.06
2022-08-21T11:24:21.715Z,96429.09
2022-08-21T11:26:54.772Z,96424.84
2022-08-21T11:29:28.709Z,96428.88
2022-08-21T11:32:13.207Z,96422.09
2022-08-21T11:34:58.335Z,96424.38
2022-08-21T11:37:43.091Z,96410.19
2022-08-21T11:40:21.143Z,96411.41
2022-08-21T11:42:57.173Z,96412.03
2022-08-21T11:45:33.577Z,96402.06
2022-08-21T11:48:12.936Z,96411.28
2022-08-21T11:50:42.913Z,96405.88
2022-08-21T11:53:15.812Z,96399.44
2022-08-21T11:55:49.117Z,96400.88
2022-08-21T11:58:22.548Z,96405.53
2022-08-21T12:00:56.030Z,96403.38
2022-08-21T12:03:28.799Z,96396.09
2022-08-21T12:05:59.184Z,96401.94
2022-08-21T12:08:32.256Z,96394.47
2022-08-21T12:11:07.314Z,96396.69
2022-08-21T12:13:40.417Z,96388.19
2022-08-21T12:16:13.890Z,96396.81
2022-08-21T12:18:42.781Z,96362.97
2022-08-21T12:21:24.452Z,96382.81
2022-08-21T12:24:04.527Z,96377.91
2022-08-21T12:26:35.231Z,96380.59
2022-08-21T12:29:17.645Z,96377.16
2022-08-21T12:31:57.269Z,96382.56
2022-08-21T12:34:32.558Z,96379.66
2022-08-21T12:37:03.374Z,96379.19
2022-08-21T12:39:33.856Z,96371.63
2022-08-21T12:42:07.240Z,96369.97
2022-08-21T12:44:40.803Z,96367.47
2022-08-21T12:47:18.246Z,96377.97
2022-08-21T12:49:55.323Z,96367.13
2022-08-21T12:52:25.679Z,96356.50
2022-08-21T12:54:53.551Z,96372.72
2022-08-21T12:57:25.317Z,96370.91
2022-08-21T12:59:58.558Z,96372.34
2022-08-21T13:02:48.357Z,96364.44
2022-08-21T13:05:21.719Z,96363.44
2022-08-21T13:07:50.466Z,96350.94
2022-08-21T13:10:22.263Z,96358.00
2022-08-21T13:12:50.982Z,96362.13
2022-08-21T13:15:33.186Z,96359.94
2022-08-21T13:18:04.564Z,96362.19
2022-08-21T13:20:35.482Z,96356.88
2022-08-21T13:23:04.788Z,96352.81
2022-08-21T13:25:38.426Z,96353.84
2022-08-21T13:28:09.925Z,96354.34
2022-08-21T13:30:41.635Z,96350.25
2022-08-21T13:33:13.405Z,96358.97
2022-08-21T13:35:50.888Z,96364.72
2022-08-21T13:38:21.665Z,96358.75
2022-08-21T13:40:58.802Z,96338.66
2022-08-21T13:43:30.541Z,96339.59
2022-08-21T13:45:58.880Z,96349.66
2022-08-21T13:48:31.877Z,96355.69
2022-08-21T13:51:00.875Z,96349.09
2022-08-21T13:53:31.949Z,96348.47
2022-08-21T13:56:01.198Z,96343.00
2022-08-21T13:58:31.335Z,96351.44
2022-08-21T14:01:01.206Z,96341.59
2022-08-21T14:03:38.985Z,96339.69
2022-08-21T14:06:14.734Z,96338.78
2022-08-21T14:08:43.967Z,96347.97
2022-08-21T14:11:14.218Z,96340.84
2022-08-21T14:13:44.660Z,96340.66
2022-08-21T14:16:16.516Z,96330.94
2022-08-21T14:18:52.422Z,96336.75
2022-08-21T14:21:31.627Z,96335.16
2022-08-21T14:24:06.941Z,96330.84
2022-08-21T14:26:38.159Z,96326.44
2022-08-21T14:29:11.599Z,96330.53
2022-08-21T14:31:43.141Z,96320.22
2022-08-21T14:34:19.498Z,96320.34
2022-08-21T14:36:48.364Z,96313.84
2022-08-21T14:39:16.250Z,96315.28
2022-08-21T14:41:46.902Z,96307.84
2022-08-21T14:44:15.084Z,96306.75
2022-08-21T14:46:55.273Z,96301.97
2022-08-21T14:49:28.785Z,96296.66
2022-08-21T14:51:59.124Z,96301.94
2022-08-21T14:54:28.748Z,96300.41
2022-08-21T14:57:02.603Z,96285.81
2022-08-21T14:59:31.507Z,96286.50
2022-08-21T15:01:59.303Z,96290.47
2022-08-21T15:04:28.457Z,96291.31
2022-08-21T15:06:56.182Z,96294.88
2022-08-21T15:09:24.718Z,96283.31
2022-08-21T15:11:54.147Z,96287.50
2022-08-21T15:14:25.196Z,96290.38
2022-08-21T15:16:53.287Z,96290.22
2022-08-21T15:19:21.142Z,96281.00
2022-08-21T15:21:50.344Z,96285.56
2022-08-21T15:24:18.321Z,96272.25
2022-08-21T15:26:46.952Z,96283.47
2022-08-21T15:29:22.670Z,96282.03
2022-08-21T15:31:56.739Z,96284.72
2022-08-21T15:34:27.288Z,96280.84
2022-08-21T15:36:58.157Z,96274.63
2022-08-21T15:39:30.046Z,96272.88
2022-08-21T15:42:00.027Z,96266.28
2022-08-21T15:44:31.649Z,96266.03
2022-08-21T15:47:01.103Z,96268.69
2022-08-21T15:49:28.845Z,96259.41
2022-08-21T15:51:57.939Z,96262.78
2022-08-21T15:54:25.649Z,96264.81
2022-08-21T15:56:53.678Z,96252.97
2022-08-21T15:59:23.814Z,96248.41
2022-08-21T16:01:52.607Z,96260.97
2022-08-21T16:04:24.999Z,96247.28
2022-08-21T16:06:58.067Z,96260.88
2022-08-21T16:09:30.982Z,96254.56
2022-08-21T16:12:00.270Z,96255.72
2022-08-21T16:14:28.527Z,96248.09
2022-08-21T16:16:56.386Z,96242.63
2022-08-21T16:19:24.374Z,96249.13
2022-08-21T16:21:52.104Z,96234.78
2022-08-21T16:24:19.905Z,96245.09
2022-08-21T16:26:58.021Z,96239.41
2022-08-21T16:29:32.657Z,96231.63
2022-08-21T16:32:02.435Z,96239.53
2022-08-21T16:34:31.348Z,96220.94
2022-08-21T16:36:59.075Z,96236.19
2022-08-21T16:39:26.954Z,96233.47
2022-08-21T16:41:56.151Z,96239.06
2022-08-21T16:44:24.028Z,96235.19
2022-08-21T16:46:51.810Z,96239.97
2022-08-21T16:49:19.592Z,96237.91
2022-08-21T16:51:47.471Z,96236.31
2022-08-21T16:54:15.191Z,96214.38
2022-08-21T16:56:47.476Z,96229.25
2022-08-21T16:59:17.414Z,96232.13
2022-08-21T17:01:46.650Z,96232.38
2022-08-21T17:04:14.742Z,96231.50
2022-08-21T17:06:44.092Z,96223.41
2022-08-21T17:09:12.536Z,96226.88
2022-08-21T17:11:42.830Z,96226.88
2022-08-21T17:14:13.159Z,96228.91
2022-08-21T17:16:45.462Z,96230.53
2022-08-21T17:19:14.055Z,96238.19
2022-08-21T17:21:41.982Z,96220.66
2022-08-21T17:24:10.001Z,96232.25
2022-08-21T17:26:38.483Z,96232.56
2022-08-21T17:29:09.852Z,96235.41
2022-08-21T17:31:38.178Z,96236.28
2022-08-21T17:34:10.102Z,96235.41
2022-08-21T17:36:37.944Z,96240.88
2022-08-21T17:39:06.426Z,96230.41
2022-08-21T17:41:35.145Z,96237.91
2022-08-21T17:44:07.160Z,96236.13
2022-08-21T17:46:34.804Z,96231.00
2022-08-21T17:49:02.532Z,96229.56
2022-08-21T17:51:32.165Z,96226.03
2022-08-21T17:54:01.172Z,96238.94
2022-08-21T17:56:32.936Z,96241.84
2022-08-21T17:59:00.935Z,96240.63
2022-08-21T18:01:33.701Z,96234.88
2022-08-21T18:04:01.813Z,96234.38
2022-08-21T18:06:31.265Z,96229.03
2022-08-21T18:08:59.046Z,96235.28
2022-08-21T18:11:29.608Z,96240.13
2022-08-21T18:14:05.184Z,96233.44
2022-08-21T18:16:37.477Z,96233.22
2022-08-21T18:19:07.023Z,96243.16
2022-08-21T18:21:36.394Z,96244.03
2022-08-21T18:24:04.696Z,96241.66
2022-08-21T18:26:36.000Z,96246.47
2022-08-21T18:29:07.658Z,96241.16
2022-08-21T18:31:38.094Z,96238.66
2022-08-21T18:34:14.322Z,96241.78
2022-08-21T18:36:46.183Z,96247.06
2022-08-21T18:39:35.417Z,96256.88
2022-08-21T18:42:03.835Z,96245.00
2022-08-21T18:44:33.178Z,96258.72
2022-08-21T18:47:04.632Z,96258.28
2022-08-21T18:49:32.652Z,96263.16
2022-08-21T18:52:04.084Z,96261.25
2022-08-21T18:54:31.969Z,96268.38
2022-08-21T18:56:59.864Z,96265.72
2022-08-21T18:59:33.947Z,96262.34
2022-08-21T19:02:01.701Z,96267.28
2022-08-21T19:04:43.531Z,96265.41
2022-08-21T19:07:19.951Z,96264.63
2022-08-21T19:10:07.690Z,96262.19
2022-08-21T19:12:39.029Z,96275.69
2022-08-21T19:15:08.456Z,96275.69
2022-08-21T19:17:36.982Z,96280.00
2022-08-21T19:20:25.366Z,96282.72
2022-08-21T19:22:56.605Z,96278.91
2022-08-21T19:25:33.932Z,96278.47
2022-08-21T19:28:03.634Z,96290.84
2022-08-21T19:30:41.687Z,96286.22
2022-08-21T19:33:11.573Z,96290.59
2022-08-21T19:35:52.405Z,96283.97
2022-08-21T19:38:22.457Z,96293.31
2022-08-21T19:40:50.594Z,96289.22
2022-08-21T19:43:22.434Z,96294.66
2022-08-21T19:45:52.171Z,96290.59
2022-08-21T19:48:20.150Z,96284.38
2022-08-21T19:50:47.892Z,96287.84
2022-08-21T19:53:15.632Z,96290.84
2022-08-21T19:55:46.470Z,96295.47
2022-08-21T19:58:27.163Z,96299.09
2022-08-21T20:00:55.161Z,96296.84
2022-08-21T20:03:23.089Z,96298.50
2022-08-21T20:05:50.801Z,96297.28
2022-08-21T20:08:22.151Z,96303.81
2022-08-21T20:10:52.073Z,96300.81
2022-08-21T20:13:22.347Z,96298.56
2022-08-21T20:15:51.180Z,96297.56
2022-08-21T20:18:19.971Z,96291.59
2022-08-21T20:20:55.256Z,96291.19
2022-08-21T20:23:30.055Z,96298.50
2022-08-21T20:26:00.087Z,96297.28
2022-08-21T20:28:29.876Z,96287.31
2022-08-21T20:30:58.134Z,96287.50
2022-08-21T20:33:26.393Z,96290.97
2022-08-21T20:35:54.667Z,96285.66
2022-08-21T20:38:23.829Z,96290.75
2022-08-21T20:40:55.405Z,96267.63
2022-08-21T20:43:25.410Z,96287.31
2022-08-21T20:45:57.198Z,96285.88
2022-08-21T20:48:27.764Z,96285.31
2022-08-21T20:51:01.723Z,96280.00
2022-08-21T20:53:43.114Z,96286.66
2022-08-21T20:56:17.022Z,96282.13
2022-08-21T20:58:54.396Z,96281.59
2022-08-21T21:01:24.680Z,96286.66
2022-08-21T21:03:59.647Z,96282.41
2022-08-21T21:06:30.507Z,96284.03
2022-08-21T21:09:05.060Z,96287.75
2022-08-21T21:14:35.066Z,96289.56
2022-08-21T21:17:05.355Z,96292.78
2022-08-21T21:19:42.818Z,96295.94
2022-08-21T21:22:15.122Z,96306.16
2022-08-21T21:24:52.521Z,96305.81
2022-08-21T21:27:24.353Z,96298.59
2022-08-21T21:29:59.987Z,96301.41
2022-08-21T21:32:29.514Z,96303.38
2022-08-21T21:34:57.632Z,96310.19
2022-08-21T21:37:33.587Z,96311.53
2022-08-21T21:40:26.493Z,96310.47
2022-08-21T21:43:02.309Z,96313.97
2022-08-21T21:45:41.358Z,96317.72
2022-08-21T21:51:18.364Z,96305.53
2022-08-21T21:53:54.264Z,96311.59
2022-08-21T21:56:27.751Z,96313.28
2022-08-21T21:59:29.829Z,96302.00
2022-08-21T22:02:04.344Z,96314.28
2022-08-21T22:04:40.470Z,96326.78
2022-08-21T22:07:26.003Z,96326.63
2022-08-21T22:10:05.417Z,96330.19
2022-08-21T22:12:50.262Z,96328.94
2022-08-21T22:15:26.331Z,96325.84
2022-08-21T22:18:03.353Z,96310.19
2022-08-21T22:23:26.754Z,96319.94
2022-08-21T22:26:02.985Z,96321.19
2022-08-21T22:28:33.867Z,96329.78
2022-08-21T22:31:18.143Z,96324.25
2022-08-21T22:36:45.522Z,96330.25
2022-08-21T22:39:28.259Z,96321.28
2022-08-21T22:41:56.042Z,96328.53
2022-08-21T22:44:27.313Z,96322.88
2022-08-21T22:46:58.585Z,96330.84
2022-08-21T22:49:33.293Z,96323.38
2022-08-21T22:52:12.391Z,96321.00
2022-08-21T22:54:45.314Z,96311.00
2022-08-21T22:57:24.269Z,96308.31
2022-08-21T22:59:57.337Z,96322.03
2022-08-21T23:02:39.839Z,96317.19
2022-08-21T23:05:19.657Z,96307.97
2022-08-21T23:07:50.238Z,96311.22
2022-08-21T23:10:26.118Z,96309.28
2022-08-21T23:12:59.490Z,96296.66
2022-08-21T23:15:32.526Z,96298.44
2022-08-21T23:18:12.417Z,96294.19
2022-08-21T23:20:55.567Z,96292.13
2022-08-21T23:23:29.281Z,96293.81
2022-08-21T23:26:22.851Z,96294.00
2022-08-21T23:29:04.915Z,96293.59
2022-08-21T23:31:42.750Z,96289.72
2022-08-21T23:34:20.400Z,96285.53
2022-08-21T23:37:48.385Z,96289.63
2022-08-21T23:40:36.653Z,96289.03
2022-08-21T23:43:18.633Z,96293.91
2022-08-21T23:46:00.495Z,96293.22
2022-08-21T23:48:42.369Z,96299.38
2022-08-21T23:51:13.818Z,96298.91
2022-08-21T23:53:55.994Z,96289.91
2022-08-21T23:56:39.600Z,96296.63
2022-08-21T23:59:19.641Z,96294.25
